Kibworth Harcourt, United Kingdom
Current Conditions -  °F | °C
As of 9:50 PM on Monday 24 Nov 2014 (Local Time) from EGXT Reporting Station
Haze Haze  
Wind Chill: 29°   Ceiling: Unl
Heat Index: 36°   Visibility: 4mi
Dew Point: 36°   Wind: 8mph
Humidity: 100%   Direction: 280°W
Pressure: 30.33"   Gusts: NA
Location:  52.54°N, 0.99°W
Report Text: EGXT 242150Z AUTO 28007KT 6000 BR NCD 02/02 Q1027
Loading
Personal Weather Stations






























Interactive Weather Map New forecast layout! Learn more

10-Day Weather Forecast

Advertisements
Track Severe Weather on mobile